This is the latest recevied weather packets stored in our database for station/object K5FEP. If no packets are shown the sender has not sent any weather packets the latest 1 day(s).
| Time | Temp. | Humidity | Pressure | Rain* | Wind** | Luminosity | Snow |
|---|---|---|---|---|---|---|---|
| 1778081434 | 17.22° C | 88% | 1012.9 hPa | 0 mm | - | 89 W/m² | - |
| 1778079617 | 17.22° C | 81% | 1013 hPa | 1.27 mm | - | 95 W/m² | - |
| 1778079011 | 17.78° C | 77% | 1013 hPa | 1.78 mm | - | 88 W/m² | - |
| 1778077801 | 18.33° C | 72% | 1012.6 hPa | 0 mm | - | 67 W/m² | - |
| 1778077498 | 18.33° C | 73% | 1012.4 hPa | 0 mm | - | 98 W/m² | - |
| 1778076592 | 18.89° C | 67% | 1012.4 hPa | 0 mm | - | 90 W/m² | - |
| 1778075985 | 19.44° C | 63% | 1012.5 hPa | 0 mm | - | 80 W/m² | - |
| 1778075683 | 19.44° C | 62% | 1012.5 hPa | 0 mm | - | 88 W/m² | - |
| 1778075075 | 20° C | 59% | 1012.2 hPa | 0 mm | - | 134 W/m² | - |
| 1778074772 | 20° C | 60% | 1012.4 hPa | 0 mm | - | 177 W/m² | - |
| 1778073560 | 18.89° C | 65% | 1012.1 hPa | 0 mm | - | 165 W/m² | - |
| 1778071744 | 18.33° C | 66% | 1012.3 hPa | 0 mm | - | 131 W/m² | - |
| 1778071441 | 17.78° C | 67% | 1012.3 hPa | 0 mm | - | 97 W/m² | - |
| 1778070837 | 17.78° C | 71% | 1011.9 hPa | 0 mm | - | 84 W/m² | - |
| 1778070534 | 17.78° C | 72% | 1012.2 hPa | 0 mm | - | 87 W/m² | - |
| 1778069929 | 18.33° C | 66% | 1012 hPa | 0 mm | - | 44 W/m² | - |
| 1778066903 | 17.78° C | 65% | 1011.9 hPa | 0 mm | - | 25 W/m² | - |
| 1778066600 | 17.78° C | 65% | 1011.7 hPa | 0 mm | - | 24 W/m² | - |
| 1778065693 | 17.78° C | 65% | 1011.4 hPa | 0 mm | - | 25 W/m² | - |
| 1778063573 | 17.78° C | 63% | 1011.5 hPa | 0 mm | - | 7 W/m² | - |
| 1778062665 | 17.78° C | 64% | 1011.4 hPa | 0 mm | - | 2 W/m² | - |
| 1778061152 | 17.78° C | 65% | 1011.5 hPa | 0 mm | - | 0 W/m² | - |
| 1778060849 | 17.78° C | 64% | 1011.6 hPa | 0 mm | - | 0 W/m² | - |
| 1778060547 | 17.78° C | 64% | 1011.5 hPa | 0 mm | - | 0 W/m² | - |
| 1778060246 | 17.78° C | 65% | 1011.5 hPa | 0 mm | - | 0 W/m² | - |
* Rain latest hour (hover to see other rain measurements)
** Current wind speed in m/s (hover to see current wind gust speed)